sensor_id;sensor_type;location;lat;lon;timestamp;pressure;altitude;pressure_sealevel;temperature
68911;BMP180;55953;51.650;-0.522;2023-02-28T00:01:32;102432.00;;;2.62
68911;BMP180;55953;51.650;-0.522;2023-02-28T00:04:00;102428.20;;;2.60
68911;BMP180;55953;51.650;-0.522;2023-02-28T00:06:29;102430.00;;;2.60
68911;BMP180;55953;51.650;-0.522;2023-02-28T00:08:57;102429.60;;;2.60
68911;BMP180;55953;51.650;-0.522;2023-02-28T00:11:25;102432.80;;;2.60
68911;BMP180;55953;51.650;-0.522;2023-02-28T00:13:53;102435.20;;;2.60
68911;BMP180;55953;51.650;-0.522;2023-02-28T00:16:22;102434.00;;;2.60
68911;BMP180;55953;51.650;-0.522;2023-02-28T00:18:51;102428.60;;;2.60
68911;BMP180;55953;51.650;-0.522;2023-02-28T00:21:19;102439.60;;;2.60
68911;BMP180;55953;51.650;-0.522;2023-02-28T00:23:48;102436.60;;;2.60
68911;BMP180;55953;51.650;-0.522;2023-02-28T00:26:16;102439.00;;;2.60
68911;BMP180;55953;51.650;-0.522;2023-02-28T00:28:45;102441.80;;;2.60
68911;BMP180;55953;51.650;-0.522;2023-02-28T00:31:13;102440.00;;;2.60
68911;BMP180;55953;51.650;-0.522;2023-02-28T00:33:41;102442.20;;;2.60
68911;BMP180;55953;51.650;-0.522;2023-02-28T00:36:11;102445.80;;;2.60
68911;BMP180;55953;51.650;-0.522;2023-02-28T00:38:40;102441.20;;;2.60
68911;BMP180;55953;51.650;-0.522;2023-02-28T00:41:09;102445.20;;;2.60
68911;BMP180;55953;51.650;-0.522;2023-02-28T00:43:38;102446.80;;;2.60
68911;BMP180;55953;51.650;-0.522;2023-02-28T00:46:07;102452.80;;;2.60
68911;BMP180;55953;51.650;-0.522;2023-02-28T00:48:36;102446.60;;;2.60
68911;BMP180;55953;51.650;-0.522;2023-02-28T00:51:04;102445.80;;;2.60
68911;BMP180;55953;51.650;-0.522;2023-02-28T00:53:32;102445.60;;;2.60
68911;BMP180;55953;51.650;-0.522;2023-02-28T00:56:00;102443.60;;;2.58
68911;BMP180;55953;51.650;-0.522;2023-02-28T00:58:28;102439.00;;;2.54
68911;BMP180;55953;51.650;-0.522;2023-02-28T01:00:57;102441.40;;;2.50
68911;BMP180;55953;51.650;-0.522;2023-02-28T01:03:25;102446.80;;;2.52
68911;BMP180;55953;51.650;-0.522;2023-02-28T01:05:53;102443.80;;;2.52
68911;BMP180;55953;51.650;-0.522;2023-02-28T01:08:21;102445.40;;;2.52
68911;BMP180;55953;51.650;-0.522;2023-02-28T01:10:50;102450.40;;;2.60
68911;BMP180;55953;51.650;-0.522;2023-02-28T01:13:19;102446.20;;;2.60
68911;BMP180;55953;51.650;-0.522;2023-02-28T01:15:54;102447.20;;;2.60
68911;BMP180;55953;51.650;-0.522;2023-02-28T01:18:22;102452.40;;;2.58
68911;BMP180;55953;51.650;-0.522;2023-02-28T01:20:50;102450.60;;;2.60
68911;BMP180;55953;51.650;-0.522;2023-02-28T01:23:21;102449.00;;;2.60
68911;BMP180;55953;51.650;-0.522;2023-02-28T01:25:51;102451.80;;;2.60
68911;BMP180;55953;51.650;-0.522;2023-02-28T01:28:20;102451.40;;;2.70
68911;BMP180;55953;51.650;-0.522;2023-02-28T01:30:51;102449.20;;;2.70
68911;BMP180;55953;51.650;-0.522;2023-02-28T01:33:19;102452.40;;;2.70
68911;BMP180;55953;51.650;-0.522;2023-02-28T01:35:48;102441.80;;;2.74
68911;BMP180;55953;51.650;-0.522;2023-02-28T01:38:15;102439.40;;;2.78
68911;BMP180;55953;51.650;-0.522;2023-02-28T01:40:51;102439.60;;;2.80
68911;BMP180;55953;51.650;-0.522;2023-02-28T01:43:31;102443.40;;;2.80
68911;BMP180;55953;51.650;-0.522;2023-02-28T01:45:59;102436.00;;;2.80
68911;BMP180;55953;51.650;-0.522;2023-02-28T01:48:35;102436.20;;;2.84
68911;BMP180;55953;51.650;-0.522;2023-02-28T01:51:13;102438.00;;;2.90
68911;BMP180;55953;51.650;-0.522;2023-02-28T01:53:50;102442.40;;;2.82
68911;BMP180;55953;51.650;-0.522;2023-02-28T01:56:27;102438.40;;;2.86
68911;BMP180;55953;51.650;-0.522;2023-02-28T01:58:57;102435.40;;;2.82
68911;BMP180;55953;51.650;-0.522;2023-02-28T02:01:27;102435.20;;;2.80
68911;BMP180;55953;51.650;-0.522;2023-02-28T02:04:00;102437.40;;;2.80
68911;BMP180;55953;51.650;-0.522;2023-02-28T02:06:40;102434.00;;;2.80
68911;BMP180;55953;51.650;-0.522;2023-02-28T02:09:11;102436.60;;;2.80
68911;BMP180;55953;51.650;-0.522;2023-02-28T02:11:42;102433.20;;;2.80
68911;BMP180;55953;51.650;-0.522;2023-02-28T02:14:22;102435.60;;;2.80
68911;BMP180;55953;51.650;-0.522;2023-02-28T02:17:29;102435.80;;;2.70
68911;BMP180;55953;51.650;-0.522;2023-02-28T02:20:14;102435.00;;;2.70
68911;BMP180;55953;51.650;-0.522;2023-02-28T02:23:11;102442.20;;;2.70
68911;BMP180;55953;51.650;-0.522;2023-02-28T02:25:53;102432.20;;;2.62
68911;BMP180;55953;51.650;-0.522;2023-02-28T02:42:42;102437.80;;;2.50
68911;BMP180;55953;51.650;-0.522;2023-02-28T02:45:26;102439.20;;;2.40
68911;BMP180;55953;51.650;-0.522;2023-02-28T02:47:58;102435.80;;;2.40
68911;BMP180;55953;51.650;-0.522;2023-02-28T02:50:37;102435.00;;;2.40
68911;BMP180;55953;51.650;-0.522;2023-02-28T02:53:08;102440.40;;;2.38
68911;BMP180;55953;51.650;-0.522;2023-02-28T02:55:43;102439.40;;;2.30
68911;BMP180;55953;51.650;-0.522;2023-02-28T02:58:22;102435.20;;;2.30
68911;BMP180;55953;51.650;-0.522;2023-02-28T03:00:56;102440.20;;;2.30
68911;BMP180;55953;51.650;-0.522;2023-02-28T03:03:27;102445.40;;;2.30
68911;BMP180;55953;51.650;-0.522;2023-02-28T03:06:00;102451.40;;;2.24
68911;BMP180;55953;51.650;-0.522;2023-02-28T03:08:35;102440.80;;;2.22
68911;BMP180;55953;51.650;-0.522;2023-02-28T03:11:12;102446.60;;;2.20
68911;BMP180;55953;51.650;-0.522;2023-02-28T03:13:47;102451.20;;;2.20
68911;BMP180;55953;51.650;-0.522;2023-02-28T03:17:13;102444.60;;;2.20
68911;BMP180;55953;51.650;-0.522;2023-02-28T03:19:49;102431.00;;;2.20
68911;BMP180;55953;51.650;-0.522;2023-02-28T03:34:10;102426.60;;;2.20
68911;BMP180;55953;51.650;-0.522;2023-02-28T03:36:47;102431.80;;;2.20
68911;BMP180;55953;51.650;-0.522;2023-02-28T03:39:55;102432.60;;;2.20
68911;BMP180;55953;51.650;-0.522;2023-02-28T03:42:29;102431.60;;;2.28
68911;BMP180;55953;51.650;-0.522;2023-02-28T03:45:04;102436.40;;;2.30
68911;BMP180;55953;51.650;-0.522;2023-02-28T03:47:52;102440.20;;;2.30
68911;BMP180;55953;51.650;-0.522;2023-02-28T03:50:30;102434.00;;;2.38
68911;BMP180;55953;51.650;-0.522;2023-02-28T03:53:08;102429.00;;;2.40
68911;BMP180;55953;51.650;-0.522;2023-02-28T03:55:56;102435.60;;;2.40
68911;BMP180;55953;51.650;-0.522;2023-02-28T04:01:30;102429.40;;;2.60
68911;BMP180;55953;51.650;-0.522;2023-02-28T04:04:00;102432.60;;;2.60
68911;BMP180;55953;51.650;-0.522;2023-02-28T04:06:32;102426.20;;;2.60
68911;BMP180;55953;51.650;-0.522;2023-02-28T04:09:01;102426.00;;;2.60
68911;BMP180;55953;51.650;-0.522;2023-02-28T04:11:36;102427.80;;;2.70
68911;BMP180;55953;51.650;-0.522;2023-02-28T04:14:06;102429.40;;;2.70
68911;BMP180;55953;51.650;-0.522;2023-02-28T04:16:38;102429.00;;;2.70
68911;BMP180;55953;51.650;-0.522;2023-02-28T04:19:09;102434.00;;;2.66
68911;BMP180;55953;51.650;-0.522;2023-02-28T04:21:41;102432.40;;;2.66
68911;BMP180;55953;51.650;-0.522;2023-02-28T04:24:14;102436.40;;;2.70
68911;BMP180;55953;51.650;-0.522;2023-02-28T04:26:46;102440.60;;;2.66
68911;BMP180;55953;51.650;-0.522;2023-02-28T04:29:27;102445.00;;;2.60
68911;BMP180;55953;51.650;-0.522;2023-02-28T04:31:57;102444.40;;;2.60
68911;BMP180;55953;51.650;-0.522;2023-02-28T04:34:30;102449.80;;;2.60
68911;BMP180;55953;51.650;-0.522;2023-02-28T04:36:58;102454.20;;;2.60
68911;BMP180;55953;51.650;-0.522;2023-02-28T04:39:43;102444.00;;;2.58
68911;BMP180;55953;51.650;-0.522;2023-02-28T04:42:12;102450.60;;;2.50
68911;BMP180;55953;51.650;-0.522;2023-02-28T04:44:41;102451.80;;;2.50
68911;BMP180;55953;51.650;-0.522;2023-02-28T04:47:08;102449.00;;;2.58
68911;BMP180;55953;51.650;-0.522;2023-02-28T04:49:36;102456.80;;;2.54
68911;BMP180;55953;51.650;-0.522;2023-02-28T04:52:04;102451.80;;;2.56
68911;BMP180;55953;51.650;-0.522;2023-02-28T04:54:34;102447.80;;;2.50
68911;BMP180;55953;51.650;-0.522;2023-02-28T04:57:02;102448.60;;;2.58
68911;BMP180;55953;51.650;-0.522;2023-02-28T04:59:32;102447.80;;;2.54
68911;BMP180;55953;51.650;-0.522;2023-02-28T05:02:00;102457.60;;;2.50
68911;BMP180;55953;51.650;-0.522;2023-02-28T05:04:35;102454.20;;;2.50
68911;BMP180;55953;51.650;-0.522;2023-02-28T05:07:04;102460.80;;;2.50
68911;BMP180;55953;51.650;-0.522;2023-02-28T05:09:32;102467.00;;;2.40
68911;BMP180;55953;51.650;-0.522;2023-02-28T05:12:01;102469.40;;;2.40
68911;BMP180;55953;51.650;-0.522;2023-02-28T05:14:29;102475.80;;;2.40
68911;BMP180;55953;51.650;-0.522;2023-02-28T05:16:56;102474.60;;;2.34
68911;BMP180;55953;51.650;-0.522;2023-02-28T05:19:24;102479.20;;;2.30
68911;BMP180;55953;51.650;-0.522;2023-02-28T05:21:54;102477.60;;;2.30
68911;BMP180;55953;51.650;-0.522;2023-02-28T05:24:23;102480.40;;;2.38
68911;BMP180;55953;51.650;-0.522;2023-02-28T05:26:53;102480.20;;;2.40
68911;BMP180;55953;51.650;-0.522;2023-02-28T05:29:22;102476.40;;;2.50
68911;BMP180;55953;51.650;-0.522;2023-02-28T05:31:50;102479.80;;;2.50
68911;BMP180;55953;51.650;-0.522;2023-02-28T05:34:18;102484.80;;;2.60
68911;BMP180;55953;51.650;-0.522;2023-02-28T05:36:46;102483.40;;;2.60
68911;BMP180;55953;51.650;-0.522;2023-02-28T05:39:14;102489.60;;;2.68
68911;BMP180;55953;51.650;-0.522;2023-02-28T05:41:43;102485.80;;;2.70
68911;BMP180;55953;51.650;-0.522;2023-02-28T05:44:11;102483.80;;;2.70
68911;BMP180;55953;51.650;-0.522;2023-02-28T05:46:40;102480.80;;;2.70
68911;BMP180;55953;51.650;-0.522;2023-02-28T05:49:07;102473.80;;;2.74
68911;BMP180;55953;51.650;-0.522;2023-02-28T05:51:35;102480.20;;;2.78
68911;BMP180;55953;51.650;-0.522;2023-02-28T05:54:08;102477.40;;;2.76
68911;BMP180;55953;51.650;-0.522;2023-02-28T05:56:36;102476.80;;;2.70
68911;BMP180;55953;51.650;-0.522;2023-02-28T05:59:06;102479.00;;;2.70
68911;BMP180;55953;51.650;-0.522;2023-02-28T06:01:43;102480.00;;;2.70
68911;BMP180;55953;51.650;-0.522;2023-02-28T06:04:20;102484.60;;;2.70
68911;BMP180;55953;51.650;-0.522;2023-02-28T06:06:58;102480.80;;;2.60
68911;BMP180;55953;51.650;-0.522;2023-02-28T06:09:26;102483.00;;;2.60
68911;BMP180;55953;51.650;-0.522;2023-02-28T06:11:57;102478.60;;;2.60
68911;BMP180;55953;51.650;-0.522;2023-02-28T06:14:25;102481.40;;;2.60
68911;BMP180;55953;51.650;-0.522;2023-02-28T06:16:53;102478.00;;;2.60
68911;BMP180;55953;51.650;-0.522;2023-02-28T06:19:23;102475.40;;;2.56
68911;BMP180;55953;51.650;-0.522;2023-02-28T06:21:55;102473.40;;;2.50
68911;BMP180;55953;51.650;-0.522;2023-02-28T06:24:25;102474.80;;;2.50
68911;BMP180;55953;51.650;-0.522;2023-02-28T06:26:55;102474.80;;;2.50
68911;BMP180;55953;51.650;-0.522;2023-02-28T06:29:23;102480.40;;;2.50
68911;BMP180;55953;51.650;-0.522;2023-02-28T06:31:51;102478.60;;;2.50
68911;BMP180;55953;51.650;-0.522;2023-02-28T06:34:19;102486.80;;;2.48
68911;BMP180;55953;51.650;-0.522;2023-02-28T06:36:51;102485.00;;;2.48
68911;BMP180;55953;51.650;-0.522;2023-02-28T06:39:19;102481.80;;;2.40
68911;BMP180;55953;51.650;-0.522;2023-02-28T06:41:47;102485.00;;;2.32
68911;BMP180;55953;51.650;-0.522;2023-02-28T06:44:23;102487.80;;;2.30
68911;BMP180;55953;51.650;-0.522;2023-02-28T06:46:51;102484.00;;;2.30
68911;BMP180;55953;51.650;-0.522;2023-02-28T06:49:19;102481.60;;;2.30
68911;BMP180;55953;51.650;-0.522;2023-02-28T06:51:47;102489.40;;;2.34
68911;BMP180;55953;51.650;-0.522;2023-02-28T06:54:15;102484.40;;;2.40
68911;BMP180;55953;51.650;-0.522;2023-02-28T06:56:43;102482.20;;;2.38
68911;BMP180;55953;51.650;-0.522;2023-02-28T06:59:11;102484.40;;;2.32
68911;BMP180;55953;51.650;-0.522;2023-02-28T07:01:39;102480.00;;;2.40
68911;BMP180;55953;51.650;-0.522;2023-02-28T07:04:08;102482.00;;;2.40
68911;BMP180;55953;51.650;-0.522;2023-02-28T07:06:36;102482.80;;;2.50
68911;BMP180;55953;51.650;-0.522;2023-02-28T07:09:04;102488.60;;;2.50
68911;BMP180;55953;51.650;-0.522;2023-02-28T07:11:31;102488.20;;;2.50
68911;BMP180;55953;51.650;-0.522;2023-02-28T07:13:59;102485.00;;;2.60
68911;BMP180;55953;51.650;-0.522;2023-02-28T07:16:27;102485.00;;;2.60
68911;BMP180;55953;51.650;-0.522;2023-02-28T07:18:55;102482.60;;;2.70
68911;BMP180;55953;51.650;-0.522;2023-02-28T07:21:24;102488.40;;;2.70
68911;BMP180;55953;51.650;-0.522;2023-02-28T07:23:52;102482.40;;;2.74
68911;BMP180;55953;51.650;-0.522;2023-02-28T07:26:20;102486.80;;;2.80
68911;BMP180;55953;51.650;-0.522;2023-02-28T07:28:49;102486.80;;;2.80
68911;BMP180;55953;51.650;-0.522;2023-02-28T07:31:18;102486.60;;;2.90
68911;BMP180;55953;51.650;-0.522;2023-02-28T07:33:46;102486.80;;;2.94
68911;BMP180;55953;51.650;-0.522;2023-02-28T07:36:16;102489.80;;;3.00
68911;BMP180;55953;51.650;-0.522;2023-02-28T07:38:48;102489.00;;;3.10
68911;BMP180;55953;51.650;-0.522;2023-02-28T07:41:21;102488.40;;;3.20
68911;BMP180;55953;51.650;-0.522;2023-02-28T07:43:49;102488.80;;;3.30
68911;BMP180;55953;51.650;-0.522;2023-02-28T07:46:19;102495.00;;;3.40
68911;BMP180;55953;51.650;-0.522;2023-02-28T07:48:48;102491.00;;;3.50
68911;BMP180;55953;51.650;-0.522;2023-02-28T07:51:16;102482.40;;;3.60
68911;BMP180;55953;51.650;-0.522;2023-02-28T07:53:44;102482.20;;;3.76
68911;BMP180;55953;51.650;-0.522;2023-02-28T07:56:12;102476.00;;;3.90
68911;BMP180;55953;51.650;-0.522;2023-02-28T07:58:40;102478.20;;;4.10
68911;BMP180;55953;51.650;-0.522;2023-02-28T08:01:10;102477.80;;;4.20
68911;BMP180;55953;51.650;-0.522;2023-02-28T08:03:39;102477.40;;;4.30
68911;BMP180;55953;51.650;-0.522;2023-02-28T08:06:16;102477.20;;;4.50
68911;BMP180;55953;51.650;-0.522;2023-02-28T08:08:45;102469.40;;;4.60
68911;BMP180;55953;51.650;-0.522;2023-02-28T08:11:14;102469.20;;;4.76
68911;BMP180;55953;51.650;-0.522;2023-02-28T08:13:44;102467.80;;;4.90
68911;BMP180;55953;51.650;-0.522;2023-02-28T08:16:14;102469.00;;;5.02
68911;BMP180;55953;51.650;-0.522;2023-02-28T08:18:51;102464.40;;;5.20
68911;BMP180;55953;51.650;-0.522;2023-02-28T08:21:20;102468.20;;;5.30
68911;BMP180;55953;51.650;-0.522;2023-02-28T08:23:50;102466.60;;;5.30
68911;BMP180;55953;51.650;-0.522;2023-02-28T08:26:19;102461.80;;;5.40
68911;BMP180;55953;51.650;-0.522;2023-02-28T08:28:46;102467.80;;;5.40
68911;BMP180;55953;51.650;-0.522;2023-02-28T08:31:16;102471.00;;;5.50
68911;BMP180;55953;51.650;-0.522;2023-02-28T08:33:45;102464.20;;;5.50
68911;BMP180;55953;51.650;-0.522;2023-02-28T08:36:13;102471.60;;;5.50
68911;BMP180;55953;51.650;-0.522;2023-02-28T08:38:41;102471.00;;;5.50
68911;BMP180;55953;51.650;-0.522;2023-02-28T08:41:11;102466.60;;;5.60
68911;BMP180;55953;51.650;-0.522;2023-02-28T08:43:40;102472.60;;;5.70
68911;BMP180;55953;51.650;-0.522;2023-02-28T08:46:12;102473.80;;;5.70
68911;BMP180;55953;51.650;-0.522;2023-02-28T08:48:41;102476.80;;;5.70
68911;BMP180;55953;51.650;-0.522;2023-02-28T08:51:14;102478.60;;;5.78
68911;BMP180;55953;51.650;-0.522;2023-02-28T08:53:45;102471.20;;;5.80
68911;BMP180;55953;51.650;-0.522;2023-02-28T08:56:14;102472.00;;;5.90
68911;BMP180;55953;51.650;-0.522;2023-02-28T08:58:46;102473.60;;;5.92
68911;BMP180;55953;51.650;-0.522;2023-02-28T09:03:43;102472.40;;;6.10
68911;BMP180;55953;51.650;-0.522;2023-02-28T09:06:13;102465.60;;;6.20
68911;BMP180;55953;51.650;-0.522;2023-02-28T09:08:41;102459.80;;;6.22
68911;BMP180;55953;51.650;-0.522;2023-02-28T09:11:10;102461.60;;;6.18
68911;BMP180;55953;51.650;-0.522;2023-02-28T09:13:39;102460.80;;;6.30
68911;BMP180;55953;51.650;-0.522;2023-02-28T09:16:12;102459.20;;;6.30
68911;BMP180;55953;51.650;-0.522;2023-02-28T09:18:40;102457.00;;;6.30
68911;BMP180;55953;51.650;-0.522;2023-02-28T09:21:13;102457.00;;;6.40
68911;BMP180;55953;51.650;-0.522;2023-02-28T09:23:44;102452.60;;;6.40
68911;BMP180;55953;51.650;-0.522;2023-02-28T09:26:22;102455.60;;;6.40
68911;BMP180;55953;51.650;-0.522;2023-02-28T09:28:52;102451.20;;;6.40
68911;BMP180;55953;51.650;-0.522;2023-02-28T09:31:26;102458.40;;;6.42
68911;BMP180;55953;51.650;-0.522;2023-02-28T09:33:57;102455.40;;;6.40
68911;BMP180;55953;51.650;-0.522;2023-02-28T09:36:27;102455.20;;;6.40
68911;BMP180;55953;51.650;-0.522;2023-02-28T09:39:12;102450.20;;;6.40
68911;BMP180;55953;51.650;-0.522;2023-02-28T09:41:45;102450.40;;;6.40
68911;BMP180;55953;51.650;-0.522;2023-02-28T09:44:38;102452.20;;;6.50
68911;BMP180;55953;51.650;-0.522;2023-02-28T09:50:43;102450.20;;;6.50
68911;BMP180;55953;51.650;-0.522;2023-02-28T09:53:33;102448.20;;;6.50
68911;BMP180;55953;51.650;-0.522;2023-02-28T09:56:07;102451.80;;;6.60
68911;BMP180;55953;51.650;-0.522;2023-02-28T09:58:50;102444.20;;;6.66
68911;BMP180;55953;51.650;-0.522;2023-02-28T10:01:31;102447.20;;;6.80
68911;BMP180;55953;51.650;-0.522;2023-02-28T10:04:36;102445.00;;;6.90
68911;BMP180;55953;51.650;-0.522;2023-02-28T10:12:48;102448.00;;;7.10
68911;BMP180;55953;51.650;-0.522;2023-02-28T10:15:22;102447.60;;;7.14
68911;BMP180;55953;51.650;-0.522;2023-02-28T10:17:58;102448.20;;;7.10
68911;BMP180;55953;51.650;-0.522;2023-02-28T10:20:39;102447.40;;;7.10
68911;BMP180;55953;51.650;-0.522;2023-02-28T10:23:34;102442.20;;;7.10
68911;BMP180;55953;51.650;-0.522;2023-02-28T10:26:16;102446.80;;;7.10
68911;BMP180;55953;51.650;-0.522;2023-02-28T10:28:45;102451.00;;;7.00
68911;BMP180;55953;51.650;-0.522;2023-02-28T10:31:19;102450.20;;;6.92
68911;BMP180;55953;51.650;-0.522;2023-02-28T10:33:48;102441.00;;;6.90
68911;BMP180;55953;51.650;-0.522;2023-02-28T10:36:19;102439.80;;;7.08
68911;BMP180;55953;51.650;-0.522;2023-02-28T10:38:48;102439.40;;;7.20
68911;BMP180;55953;51.650;-0.522;2023-02-28T10:41:42;102435.20;;;7.20
68911;BMP180;55953;51.650;-0.522;2023-02-28T10:44:20;102435.00;;;7.12
68911;BMP180;55953;51.650;-0.522;2023-02-28T10:46:51;102431.00;;;7.20
68911;BMP180;55953;51.650;-0.522;2023-02-28T10:49:29;102425.00;;;7.20
68911;BMP180;55953;51.650;-0.522;2023-02-28T10:52:00;102429.00;;;7.40
68911;BMP180;55953;51.650;-0.522;2023-02-28T10:54:36;102423.80;;;7.60
68911;BMP180;55953;51.650;-0.522;2023-02-28T10:57:23;102423.20;;;7.80
68911;BMP180;55953;51.650;-0.522;2023-02-28T11:00:19;102422.20;;;7.70
68911;BMP180;55953;51.650;-0.522;2023-02-28T11:02:49;102420.60;;;7.60
68911;BMP180;55953;51.650;-0.522;2023-02-28T11:05:33;102412.20;;;7.60
68911;BMP180;55953;51.650;-0.522;2023-02-28T11:08:15;102412.80;;;7.74
68911;BMP180;55953;51.650;-0.522;2023-02-28T11:10:54;102411.40;;;7.80
68911;BMP180;55953;51.650;-0.522;2023-02-28T11:13:30;102408.00;;;7.80
68911;BMP180;55953;51.650;-0.522;2023-02-28T11:16:04;102414.60;;;7.80
68911;BMP180;55953;51.650;-0.522;2023-02-28T11:18:47;102417.20;;;7.80
68911;BMP180;55953;51.650;-0.522;2023-02-28T11:21:34;102419.40;;;7.70
68911;BMP180;55953;51.650;-0.522;2023-02-28T11:24:24;102415.40;;;7.66
68911;BMP180;55953;51.650;-0.522;2023-02-28T11:26:55;102416.40;;;7.60
68911;BMP180;55953;51.650;-0.522;2023-02-28T11:29:33;102413.60;;;7.60
68911;BMP180;55953;51.650;-0.522;2023-02-28T11:32:12;102411.60;;;7.60
68911;BMP180;55953;51.650;-0.522;2023-02-28T11:34:42;102404.60;;;7.60
68911;BMP180;55953;51.650;-0.522;2023-02-28T11:37:18;102412.00;;;7.70
68911;BMP180;55953;51.650;-0.522;2023-02-28T11:39:46;102404.80;;;7.70
68911;BMP180;55953;51.650;-0.522;2023-02-28T11:42:38;102398.60;;;7.58
68911;BMP180;55953;51.650;-0.522;2023-02-28T11:59:35;102388.20;;;7.50
68911;BMP180;55953;51.650;-0.522;2023-02-28T12:02:29;102375.60;;;7.50
68911;BMP180;55953;51.650;-0.522;2023-02-28T12:05:20;102371.80;;;7.50
68911;BMP180;55953;51.650;-0.522;2023-02-28T12:14:50;102342.00;;;7.70
68911;BMP180;55953;51.650;-0.522;2023-02-28T12:29:21;102320.20;;;8.50
68911;BMP180;55953;51.650;-0.522;2023-02-28T12:32:16;102321.80;;;8.52
68911;BMP180;55953;51.650;-0.522;2023-02-28T12:34:52;102316.20;;;8.50
68911;BMP180;55953;51.650;-0.522;2023-02-28T12:37:33;102306.00;;;8.56
68911;BMP180;55953;51.650;-0.522;2023-02-28T12:40:14;102309.40;;;8.50
68911;BMP180;55953;51.650;-0.522;2023-02-28T12:42:53;102300.20;;;8.40
68911;BMP180;55953;51.650;-0.522;2023-02-28T12:45:52;102300.00;;;8.30
68911;BMP180;55953;51.650;-0.522;2023-02-28T12:48:37;102310.40;;;8.12
68911;BMP180;55953;51.650;-0.522;2023-02-28T12:51:07;102300.40;;;8.30
68911;BMP180;55953;51.650;-0.522;2023-02-28T12:56:36;102285.40;;;8.42
68911;BMP180;55953;51.650;-0.522;2023-02-28T13:02:33;102279.20;;;8.40
68911;BMP180;55953;51.650;-0.522;2023-02-28T13:10:50;102274.00;;;8.38
68911;BMP180;55953;51.650;-0.522;2023-02-28T13:13:27;102266.20;;;8.30
68911;BMP180;55953;51.650;-0.522;2023-02-28T13:18:43;102254.60;;;8.46
68911;BMP180;55953;51.650;-0.522;2023-02-28T13:21:28;102248.80;;;8.60
68911;BMP180;55953;51.650;-0.522;2023-02-28T13:24:03;102244.20;;;8.74
68911;BMP180;55953;51.650;-0.522;2023-02-28T13:47:51;102190.20;;;8.94
68911;BMP180;55953;51.650;-0.522;2023-02-28T13:55:55;102185.40;;;9.08
68911;BMP180;55953;51.650;-0.522;2023-02-28T14:07:06;102183.00;;;9.00
68911;BMP180;55953;51.650;-0.522;2023-02-28T14:09:41;102183.80;;;9.10
68911;BMP180;55953;51.650;-0.522;2023-02-28T14:18:29;102183.60;;;9.00
68911;BMP180;55953;51.650;-0.522;2023-02-28T14:27:03;102185.40;;;8.90
68911;BMP180;55953;51.650;-0.522;2023-02-28T14:38:23;102165.00;;;8.90
68911;BMP180;55953;51.650;-0.522;2023-02-28T14:40:56;102168.40;;;8.90
68911;BMP180;55953;51.650;-0.522;2023-02-28T14:43:28;102170.20;;;8.84
68911;BMP180;55953;51.650;-0.522;2023-02-28T14:46:04;102173.00;;;8.90
68911;BMP180;55953;51.650;-0.522;2023-02-28T14:48:34;102169.00;;;8.80
68911;BMP180;55953;51.650;-0.522;2023-02-28T14:51:03;102172.60;;;8.80
68911;BMP180;55953;51.650;-0.522;2023-02-28T14:53:37;102166.80;;;8.80
68911;BMP180;55953;51.650;-0.522;2023-02-28T14:56:05;102168.80;;;8.80
68911;BMP180;55953;51.650;-0.522;2023-02-28T14:58:34;102171.40;;;8.72
68911;BMP180;55953;51.650;-0.522;2023-02-28T15:01:03;102166.80;;;8.70
68911;BMP180;55953;51.650;-0.522;2023-02-28T15:03:36;102165.00;;;8.60
68911;BMP180;55953;51.650;-0.522;2023-02-28T15:06:16;102167.20;;;8.60
68911;BMP180;55953;51.650;-0.522;2023-02-28T15:08:45;102162.40;;;8.60
68911;BMP180;55953;51.650;-0.522;2023-02-28T15:11:18;102161.20;;;8.60
68911;BMP180;55953;51.650;-0.522;2023-02-28T15:13:52;102155.80;;;8.60
68911;BMP180;55953;51.650;-0.522;2023-02-28T15:16:30;102151.80;;;8.60
68911;BMP180;55953;51.650;-0.522;2023-02-28T15:19:08;102156.00;;;8.64
68911;BMP180;55953;51.650;-0.522;2023-02-28T15:21:44;102149.80;;;8.70
68911;BMP180;55953;51.650;-0.522;2023-02-28T15:27:03;102155.40;;;8.64
68911;BMP180;55953;51.650;-0.522;2023-02-28T15:29:42;102156.40;;;8.70
68911;BMP180;55953;51.650;-0.522;2023-02-28T15:32:35;102153.60;;;8.70
68911;BMP180;55953;51.650;-0.522;2023-02-28T15:38:29;102151.80;;;8.70
68911;BMP180;55953;51.650;-0.522;2023-02-28T15:40:58;102143.60;;;8.70
68911;BMP180;55953;51.650;-0.522;2023-02-28T15:46:00;102161.00;;;8.70
68911;BMP180;55953;51.650;-0.522;2023-02-28T15:48:53;102151.40;;;8.76
68911;BMP180;55953;51.650;-0.522;2023-02-28T15:51:33;102158.00;;;8.80
68911;BMP180;55953;51.650;-0.522;2023-02-28T15:54:06;102154.40;;;8.82
68911;BMP180;55953;51.650;-0.522;2023-02-28T15:56:44;102153.00;;;8.80
68911;BMP180;55953;51.650;-0.522;2023-02-28T15:59:31;102143.60;;;8.80
68911;BMP180;55953;51.650;-0.522;2023-02-28T16:02:16;102145.80;;;8.90
68911;BMP180;55953;51.650;-0.522;2023-02-28T16:07:41;102145.60;;;8.80
68911;BMP180;55953;51.650;-0.522;2023-02-28T16:10:12;102139.80;;;8.76
68911;BMP180;55953;51.650;-0.522;2023-02-28T16:12:41;102144.40;;;8.80
68911;BMP180;55953;51.650;-0.522;2023-02-28T16:15:28;102140.20;;;8.78
68911;BMP180;55953;51.650;-0.522;2023-02-28T16:17:57;102136.60;;;8.70
68911;BMP180;55953;51.650;-0.522;2023-02-28T16:20:29;102144.60;;;8.70
68911;BMP180;55953;51.650;-0.522;2023-02-28T16:22:58;102151.20;;;8.70
68911;BMP180;55953;51.650;-0.522;2023-02-28T16:25:40;102154.80;;;8.70
68911;BMP180;55953;51.650;-0.522;2023-02-28T16:28:20;102164.20;;;8.60
68911;BMP180;55953;51.650;-0.522;2023-02-28T16:30:53;102159.40;;;8.60
68911;BMP180;55953;51.650;-0.522;2023-02-28T16:33:21;102164.00;;;8.60
68911;BMP180;55953;51.650;-0.522;2023-02-28T16:35:49;102163.20;;;8.50
68911;BMP180;55953;51.650;-0.522;2023-02-28T16:38:17;102169.00;;;8.50
68911;BMP180;55953;51.650;-0.522;2023-02-28T16:40:45;102166.80;;;8.40
68911;BMP180;55953;51.650;-0.522;2023-02-28T16:43:20;102169.20;;;8.40
68911;BMP180;55953;51.650;-0.522;2023-02-28T16:45:57;102161.60;;;8.40
68911;BMP180;55953;51.650;-0.522;2023-02-28T16:48:28;102167.60;;;8.40
68911;BMP180;55953;51.650;-0.522;2023-02-28T16:50:58;102164.00;;;8.40
68911;BMP180;55953;51.650;-0.522;2023-02-28T16:53:26;102171.80;;;8.40
68911;BMP180;55953;51.650;-0.522;2023-02-28T16:55:53;102173.20;;;8.40
68911;BMP180;55953;51.650;-0.522;2023-02-28T16:58:22;102170.40;;;8.40
68911;BMP180;55953;51.650;-0.522;2023-02-28T17:00:53;102182.20;;;8.40
68911;BMP180;55953;51.650;-0.522;2023-02-28T17:03:25;102186.60;;;8.40
68911;BMP180;55953;51.650;-0.522;2023-02-28T17:06:01;102188.20;;;8.30
68911;BMP180;55953;51.650;-0.522;2023-02-28T17:08:30;102187.20;;;8.22